createdAt,value
2023-04-22T00:01:37.116Z,9.00
2023-04-22T00:04:42.542Z,10.13
2023-04-22T00:07:46.217Z,9.23
2023-04-22T00:10:49.923Z,9.52
2023-04-22T00:13:53.440Z,9.95
2023-04-22T00:16:57.616Z,10.52
2023-04-22T00:20:01.655Z,10.17
2023-04-22T00:23:05.123Z,9.77
2023-04-22T00:26:10.023Z,10.32
2023-04-22T00:29:15.518Z,11.02
2023-04-22T00:32:19.264Z,10.07
2023-04-22T00:35:23.140Z,10.90
2023-04-22T00:38:26.478Z,10.32
2023-04-22T00:41:31.336Z,11.05
2023-04-22T00:44:36.426Z,9.93
2023-04-22T00:47:40.660Z,11.50
2023-04-22T00:50:43.744Z,11.15
2023-04-22T00:53:48.673Z,11.20
2023-04-22T00:56:52.040Z,11.20
2023-04-22T00:59:55.755Z,11.45
2023-04-22T01:02:59.453Z,11.30
2023-04-22T01:06:04.068Z,11.63
2023-04-22T01:09:07.848Z,11.52
2023-04-22T01:12:12.054Z,12.88
2023-04-22T01:15:15.298Z,11.35
2023-04-22T01:18:19.125Z,12.43
2023-04-22T01:21:22.915Z,12.52
2023-04-22T01:24:26.676Z,12.60
2023-04-22T01:27:30.893Z,11.97
2023-04-22T01:30:35.105Z,12.50
2023-04-22T01:33:38.933Z,14.20
2023-04-22T01:36:42.617Z,13.67
2023-04-22T01:39:47.822Z,13.50
2023-04-22T01:42:51.825Z,13.13
2023-04-22T01:45:55.258Z,12.68
2023-04-22T01:48:58.755Z,12.90
2023-04-22T01:52:02.473Z,12.65
2023-04-22T01:55:07.307Z,13.15
2023-04-22T01:58:10.872Z,13.37
2023-04-22T02:01:15.566Z,12.68
2023-04-22T02:04:22.103Z,13.90
2023-04-22T02:07:25.947Z,13.10
2023-04-22T02:10:29.729Z,13.15
2023-04-22T02:13:41.190Z,13.77
2023-04-22T02:16:44.672Z,14.07
2023-04-22T02:19:48.585Z,13.73
2023-04-22T02:22:51.970Z,13.77
2023-04-22T02:25:56.241Z,14.07
2023-04-22T02:28:59.976Z,13.43
2023-04-22T02:32:03.410Z,13.88
2023-04-22T02:35:07.228Z,13.85
2023-04-22T02:38:11.271Z,14.70
2023-04-22T02:41:14.501Z,15.07
2023-04-22T02:44:18.395Z,13.70
2023-04-22T02:47:22.676Z,14.27
2023-04-22T02:50:26.622Z,13.47
2023-04-22T02:53:29.740Z,14.77
2023-04-22T02:56:33.096Z,13.80
2023-04-22T02:59:37.740Z,14.47
2023-04-22T03:02:41.788Z,14.23
2023-04-22T03:05:45.845Z,14.20
2023-04-22T03:08:50.011Z,13.50
2023-04-22T03:11:53.254Z,14.30
2023-04-22T03:14:58.314Z,13.88
2023-04-22T03:18:01.814Z,13.55
2023-04-22T03:21:07.453Z,15.13
2023-04-22T03:24:11.618Z,13.95
2023-04-22T03:27:18.883Z,14.80
2023-04-22T03:30:22.824Z,14.13
2023-04-22T03:33:26.573Z,14.00
2023-04-22T03:36:31.247Z,14.30
2023-04-22T03:39:34.744Z,13.57
2023-04-22T03:42:38.426Z,14.17
2023-04-22T03:45:42.909Z,13.60
2023-04-22T03:48:46.626Z,15.00
2023-04-22T03:51:50.782Z,14.30
2023-04-22T03:54:54.190Z,13.88
2023-04-22T03:57:58.795Z,14.63
2023-04-22T04:01:01.998Z,16.08
2023-04-22T04:04:06.231Z,16.90
2023-04-22T04:07:10.315Z,14.95
2023-04-22T04:10:13.881Z,15.88
2023-04-22T04:13:17.283Z,14.50
2023-04-22T04:16:21.191Z,14.65
2023-04-22T04:19:26.122Z,13.88
2023-04-22T04:22:31.505Z,14.18
2023-04-22T04:25:39.021Z,13.52
2023-04-22T04:28:43.688Z,13.70
2023-04-22T04:31:48.790Z,12.43
2023-04-22T04:34:53.717Z,11.53
2023-04-22T04:37:59.490Z,12.35
2023-04-22T04:41:05.023Z,11.27
2023-04-22T04:44:08.595Z,11.73
2023-04-22T04:47:16.266Z,12.05
2023-04-22T04:50:23.074Z,12.37
2023-04-22T04:53:28.082Z,12.32
2023-04-22T04:56:33.296Z,12.43
2023-04-22T04:59:37.203Z,11.88
2023-04-22T05:02:42.812Z,11.52
2023-04-22T05:05:50.058Z,11.73
2023-04-22T05:08:53.608Z,12.20
2023-04-22T05:12:01.427Z,12.63
2023-04-22T05:15:07.171Z,12.37
2023-04-22T05:18:11.274Z,10.95
2023-04-22T05:21:14.661Z,11.47
2023-04-22T05:24:20.164Z,11.75
2023-04-22T05:27:25.303Z,11.00
2023-04-22T05:30:29.322Z,10.80
2023-04-22T05:33:32.767Z,9.85
2023-04-22T05:36:36.286Z,10.83
2023-04-22T05:39:40.650Z,8.67
2023-04-22T05:42:45.466Z,8.40
2023-04-22T05:45:48.635Z,8.73
2023-04-22T05:48:52.743Z,9.52
2023-04-22T05:51:57.951Z,8.77
2023-04-22T05:55:02.356Z,7.70
2023-04-22T05:58:05.750Z,8.00
2023-04-22T06:01:10.440Z,7.65
2023-04-22T06:04:19.309Z,7.05
2023-04-22T06:07:22.817Z,7.33
2023-04-22T06:10:26.307Z,7.00
2023-04-22T06:13:29.564Z,7.03
2023-04-22T06:16:34.033Z,6.10
2023-04-22T06:19:37.705Z,6.85
2023-04-22T06:22:41.510Z,6.17
2023-04-22T06:25:47.369Z,6.13
2023-04-22T06:28:51.681Z,6.50
2023-04-22T06:31:56.957Z,5.50
2023-04-22T06:35:00.733Z,5.32
2023-04-22T06:38:04.269Z,4.87
2023-04-22T06:41:08.213Z,5.13
2023-04-22T06:44:12.017Z,5.00
2023-04-22T06:47:16.706Z,5.35
2023-04-22T06:50:21.257Z,5.28
2023-04-22T06:53:25.998Z,5.50
2023-04-22T06:56:29.091Z,5.43
2023-04-22T06:59:32.565Z,5.22
2023-04-22T07:02:36.081Z,4.78
2023-04-22T07:05:39.965Z,5.35
2023-04-22T07:08:44.960Z,5.37
2023-04-22T07:11:48.787Z,4.83
2023-04-22T07:14:53.163Z,5.28
2023-04-22T07:17:56.644Z,5.25
2023-04-22T07:20:59.721Z,4.93
2023-04-22T07:24:03.117Z,4.70
2023-04-22T07:27:07.668Z,4.57
2023-04-22T07:30:13.737Z,4.78
2023-04-22T07:33:17.025Z,5.15
2023-04-22T07:36:20.610Z,4.80
2023-04-22T07:39:23.876Z,4.67
2023-04-22T07:42:27.424Z,4.67
2023-04-22T07:45:30.669Z,4.28
2023-04-22T07:48:34.689Z,4.37
2023-04-22T07:51:37.839Z,4.22
2023-04-22T07:54:42.842Z,4.73
2023-04-22T07:57:46.072Z,4.30
2023-04-22T08:00:49.461Z,4.28
2023-04-22T08:03:53.306Z,4.35
2023-04-22T08:06:57.559Z,4.62
2023-04-22T08:10:01.327Z,4.63
2023-04-22T08:13:04.789Z,4.60
2023-04-22T08:16:08.347Z,4.35
2023-04-22T08:19:12.524Z,4.60
2023-04-22T08:22:18.675Z,5.40
2023-04-22T08:25:23.086Z,4.00
2023-04-22T08:28:27.023Z,4.33
2023-04-22T08:31:31.459Z,4.78
2023-04-22T08:34:37.034Z,5.20
2023-04-22T08:37:42.676Z,5.30
2023-04-22T08:40:48.159Z,4.57
2023-04-22T08:43:53.381Z,5.10
2023-04-22T08:46:57.175Z,5.00
2023-04-22T08:50:03.590Z,4.47
2023-04-22T08:53:08.494Z,4.22
2023-04-22T08:56:13.162Z,5.30
2023-04-22T08:59:16.945Z,4.83
2023-04-22T09:02:22.127Z,4.97
2023-04-22T09:05:28.042Z,4.40
2023-04-22T09:08:33.069Z,4.57
2023-04-22T09:11:37.503Z,4.77
2023-04-22T09:14:40.782Z,3.97
2023-04-22T09:17:44.466Z,4.40
2023-04-22T09:20:49.563Z,4.10
2023-04-22T09:23:54.461Z,4.40
2023-04-22T09:26:58.424Z,4.40
2023-04-22T09:30:02.077Z,5.03
2023-04-22T09:33:08.197Z,4.20
2023-04-22T09:36:11.868Z,4.37
2023-04-22T09:39:15.056Z,4.47
2023-04-22T09:42:19.842Z,4.43
2023-04-22T09:45:30.902Z,3.93
2023-04-22T09:48:34.405Z,4.22
2023-04-22T09:51:44.425Z,4.90
2023-04-22T09:54:54.989Z,4.60
2023-04-22T09:57:58.594Z,4.13
2023-04-22T10:01:03.759Z,4.40
2023-04-22T10:04:09.953Z,4.70
2023-04-22T10:07:15.211Z,4.05
2023-04-22T10:10:18.814Z,4.40
2023-04-22T10:13:22.656Z,4.40
2023-04-22T10:16:27.618Z,4.93
2023-04-22T10:19:33.035Z,4.40
2023-04-22T10:22:36.599Z,4.80
2023-04-22T10:25:40.644Z,4.30
2023-04-22T10:28:45.507Z,4.20
2023-04-22T10:32:03.907Z,4.53
2023-04-22T10:35:15.000Z,3.60
2023-04-22T10:38:18.050Z,3.55
2023-04-22T10:41:27.060Z,3.87
2023-04-22T10:44:45.525Z,3.53
2023-04-22T10:47:48.984Z,3.87
2023-04-22T10:50:53.346Z,3.83
2023-04-22T10:53:56.994Z,4.03
2023-04-22T10:57:11.234Z,3.78
2023-04-22T11:00:52.481Z,3.53
2023-04-22T11:04:23.885Z,3.53
2023-04-22T11:07:27.344Z,3.67
2023-04-22T11:10:33.658Z,3.85
2023-04-22T11:13:37.020Z,3.30
2023-04-22T11:16:47.021Z,4.10
2023-04-22T11:19:56.200Z,3.40
2023-04-22T11:22:59.631Z,4.03
2023-04-22T11:26:05.985Z,3.90
2023-04-22T11:29:09.170Z,3.92
2023-04-22T11:34:22.773Z,3.50
2023-04-22T11:37:27.686Z,3.53
2023-04-22T11:40:37.826Z,3.75
2023-04-22T11:43:49.708Z,3.50
2023-04-22T11:46:52.770Z,3.80
2023-04-22T11:49:57.750Z,3.87
2023-04-22T11:53:03.148Z,3.90
2023-04-22T11:56:06.542Z,3.33
2023-04-22T11:59:09.884Z,3.90
2023-04-22T12:02:13.383Z,3.97
2023-04-22T12:05:16.953Z,4.00
2023-04-22T12:08:26.283Z,3.50
2023-04-22T12:11:29.763Z,3.80
2023-04-22T12:14:36.367Z,3.65
2023-04-22T12:17:39.797Z,3.53
2023-04-22T12:20:43.131Z,3.60
2023-04-22T12:23:54.140Z,3.78
2023-04-22T12:26:57.282Z,3.72
2023-04-22T12:30:00.679Z,3.20
2023-04-22T12:33:04.208Z,4.12
2023-04-22T12:36:07.909Z,4.07
2023-04-22T12:39:11.021Z,3.60
2023-04-22T12:42:14.619Z,3.75
2023-04-22T12:45:17.786Z,3.60
2023-04-22T12:48:22.081Z,3.45
2023-04-22T12:51:25.350Z,3.37
2023-04-22T12:54:29.270Z,3.85
2023-04-22T12:57:32.846Z,3.55
2023-04-22T13:00:36.469Z,3.65
2023-04-22T13:03:39.611Z,3.95
2023-04-22T13:06:44.344Z,3.70
2023-04-22T13:09:47.799Z,3.50
2023-04-22T13:12:51.393Z,3.20
2023-04-22T13:15:54.744Z,4.00
2023-04-22T13:18:58.209Z,3.97
2023-04-22T13:22:01.493Z,3.93
2023-04-22T13:25:05.509Z,3.78
2023-04-22T13:28:08.609Z,3.85
2023-04-22T13:31:12.181Z,4.55
2023-04-22T13:34:15.949Z,3.42
2023-04-22T13:37:21.573Z,3.50
2023-04-22T13:40:26.806Z,4.57
2023-04-22T13:43:30.309Z,4.10
2023-04-22T13:46:33.861Z,4.28
2023-04-22T13:49:37.648Z,3.90
2023-04-22T13:52:41.647Z,4.53
2023-04-22T13:55:44.951Z,6.32
2023-04-22T13:58:48.155Z,4.40
2023-04-22T14:01:52.051Z,21.85
2023-04-22T14:04:55.516Z,6.72
2023-04-22T14:07:59.640Z,10.53
2023-04-22T14:11:03.639Z,4.50
2023-04-22T14:14:07.072Z,4.15
2023-04-22T14:17:10.970Z,3.78
2023-04-22T14:20:14.231Z,3.60
2023-04-22T14:23:18.621Z,3.93
2023-04-22T14:26:21.777Z,3.90
2023-04-22T14:29:26.280Z,3.70
2023-04-22T14:32:31.315Z,4.05
2023-04-22T14:35:36.883Z,3.92
2023-04-22T14:38:40.370Z,5.00
2023-04-22T14:41:44.540Z,4.15
2023-04-22T14:44:47.685Z,3.92
2023-04-22T14:47:51.318Z,4.07
2023-04-22T14:50:54.685Z,4.12
2023-04-22T14:53:58.330Z,3.60
2023-04-22T14:57:01.854Z,3.97
2023-04-22T15:00:07.463Z,4.40
2023-04-22T15:03:11.016Z,4.03
2023-04-22T15:06:14.898Z,3.83
2023-04-22T15:09:18.130Z,3.80
2023-04-22T15:12:21.596Z,3.90
2023-04-22T15:15:24.781Z,3.70
2023-04-22T15:18:28.669Z,4.18
2023-04-22T15:21:32.201Z,3.90
2023-04-22T15:24:36.416Z,3.43
2023-04-22T15:27:39.607Z,3.70
2023-04-22T15:30:45.714Z,4.60
2023-04-22T15:33:49.075Z,4.35
2023-04-22T15:36:52.396Z,4.87
2023-04-22T15:39:55.638Z,4.73
2023-04-22T15:42:59.335Z,5.30
2023-04-22T15:46:02.655Z,4.25
2023-04-22T15:49:06.078Z,4.28
2023-04-22T15:52:09.489Z,4.25
2023-04-22T15:55:13.029Z,4.10
2023-04-22T15:58:16.430Z,4.75
2023-04-22T16:01:22.696Z,4.60
2023-04-22T16:04:26.489Z,4.30
2023-04-22T16:07:30.101Z,4.95
2023-04-22T16:10:34.035Z,4.47
2023-04-22T16:13:39.084Z,5.20
2023-04-22T16:16:43.584Z,5.18
2023-04-22T16:19:46.864Z,4.78
2023-04-22T16:22:50.497Z,5.20
2023-04-22T16:25:54.265Z,5.50
2023-04-22T16:28:57.972Z,5.87
2023-04-22T16:32:01.248Z,4.72
2023-04-22T16:35:04.885Z,4.82
2023-04-22T16:38:08.213Z,4.90
2023-04-22T16:41:11.902Z,4.87
2023-04-22T16:44:18.064Z,5.70
2023-04-22T16:47:21.506Z,4.87
2023-04-22T16:50:25.568Z,4.70
2023-04-22T16:53:29.028Z,4.87
2023-04-22T16:56:32.064Z,5.30
2023-04-22T16:59:35.768Z,5.55
2023-04-22T17:02:39.579Z,6.57
2023-04-22T17:05:43.158Z,7.80
2023-04-22T17:08:46.300Z,7.05
2023-04-22T17:11:51.247Z,6.97
2023-04-22T17:14:54.374Z,8.25
2023-04-22T17:17:58.744Z,9.95
2023-04-22T17:21:01.904Z,8.63
2023-04-22T17:24:06.062Z,8.13
2023-04-22T17:27:09.482Z,9.00
2023-04-22T17:30:13.708Z,9.40
2023-04-22T17:33:16.920Z,10.07
2023-04-22T17:36:21.936Z,9.27
2023-04-22T17:39:25.224Z,9.07
2023-04-22T17:42:38.844Z,8.60
2023-04-22T17:45:49.639Z,10.48
2023-04-22T17:48:53.333Z,10.65
2023-04-22T17:51:56.578Z,12.02
2023-04-22T17:55:00.108Z,12.63
2023-04-22T17:58:04.097Z,12.70
2023-04-22T18:01:08.898Z,13.48
2023-04-22T18:04:13.415Z,13.38
2023-04-22T18:07:17.059Z,13.23
2023-04-22T18:10:20.728Z,12.00
2023-04-22T18:13:24.432Z,13.77
2023-04-22T18:16:28.085Z,14.68
2023-04-22T18:19:31.697Z,13.80
2023-04-22T18:22:35.571Z,13.93
2023-04-22T18:25:38.755Z,13.52
2023-04-22T18:28:43.634Z,13.87
2023-04-22T18:31:47.093Z,13.68
2023-04-22T18:34:52.104Z,15.27
2023-04-22T18:37:55.428Z,15.02
2023-04-22T18:41:00.244Z,15.57
2023-04-22T18:44:03.766Z,16.17
2023-04-22T18:47:07.749Z,17.08
2023-04-22T18:50:11.372Z,15.88
2023-04-22T18:53:15.248Z,17.55
2023-04-22T18:56:18.901Z,21.92
2023-04-22T18:59:22.530Z,30.20
2023-04-22T19:02:26.620Z,36.53
2023-04-22T19:05:31.086Z,37.92
2023-04-22T19:08:35.163Z,36.25
2023-04-22T19:11:39.134Z,31.95
2023-04-22T19:14:43.035Z,30.03
2023-04-22T19:17:48.200Z,30.88
2023-04-22T19:20:52.075Z,30.25
2023-04-22T19:23:56.316Z,32.88
2023-04-22T19:27:02.624Z,29.02
2023-04-22T19:30:07.086Z,27.67
2023-04-22T19:33:11.249Z,22.42
2023-04-22T19:36:15.527Z,17.15
2023-04-22T19:39:20.390Z,15.07
2023-04-22T19:42:25.083Z,12.17
2023-04-22T19:45:30.542Z,11.63
2023-04-22T19:48:34.612Z,17.83
2023-04-22T19:51:40.259Z,14.23
2023-04-22T19:54:47.874Z,14.63
2023-04-22T19:57:51.774Z,15.20
2023-04-22T20:00:56.643Z,15.50
2023-04-22T20:04:04.459Z,15.30
2023-04-22T20:07:08.377Z,16.52
2023-04-22T20:10:12.477Z,16.90
2023-04-22T20:13:16.311Z,16.80
2023-04-22T20:16:21.157Z,14.48
2023-04-22T20:19:25.145Z,16.15
2023-04-22T20:22:28.791Z,17.42
2023-04-22T20:25:32.269Z,15.43
2023-04-22T20:28:52.267Z,16.05
2023-04-22T20:31:56.549Z,15.52
2023-04-22T20:35:01.538Z,14.10
2023-04-22T20:38:06.983Z,13.90
2023-04-22T20:41:14.318Z,12.83
2023-04-22T20:44:18.247Z,13.82
2023-04-22T20:47:21.658Z,12.98
2023-04-22T20:50:25.794Z,13.68
2023-04-22T20:53:30.891Z,14.30
2023-04-22T20:56:34.194Z,14.05
2023-04-22T20:59:37.696Z,14.18
2023-04-22T21:02:42.322Z,13.00
2023-04-22T21:05:46.943Z,12.27
2023-04-22T21:08:50.537Z,12.57
2023-04-22T21:11:54.789Z,12.68
2023-04-22T21:14:58.286Z,12.68
2023-04-22T21:18:03.787Z,13.02
2023-04-22T21:21:08.302Z,12.88
2023-04-22T21:24:12.110Z,12.63
2023-04-22T21:27:17.216Z,14.33
2023-04-22T21:30:22.029Z,13.35
2023-04-22T21:33:25.615Z,14.63
2023-04-22T21:36:29.158Z,15.82
2023-04-22T21:39:37.638Z,14.57
2023-04-22T21:42:41.833Z,15.27
2023-04-22T21:45:45.047Z,15.45
2023-04-22T21:48:49.001Z,14.85
2023-04-22T21:51:52.698Z,15.37
2023-04-22T21:54:56.869Z,13.68
2023-04-22T21:58:00.513Z,13.23
2023-04-22T22:01:04.060Z,15.13
2023-04-22T22:04:07.672Z,12.70
2023-04-22T22:07:12.615Z,12.70
2023-04-22T22:10:22.734Z,12.50
2023-04-22T22:13:26.613Z,12.82
2023-04-22T22:16:31.364Z,14.40
2023-04-22T22:19:34.552Z,13.62
2023-04-22T22:22:42.432Z,14.10
2023-04-22T22:25:45.748Z,14.60
2023-04-22T22:28:49.767Z,14.60
2023-04-22T22:31:53.147Z,15.23
2023-04-22T22:34:59.508Z,15.18
2023-04-22T22:38:02.598Z,15.70
2023-04-22T22:41:06.054Z,14.10
2023-04-22T22:44:09.193Z,13.57
2023-04-22T22:47:13.529Z,14.68
2023-04-22T22:50:16.744Z,12.90
2023-04-22T22:53:21.411Z,14.85
2023-04-22T22:56:24.750Z,13.77
2023-04-22T22:59:28.463Z,13.90
2023-04-22T23:02:32.100Z,13.43
2023-04-22T23:05:35.756Z,15.13
2023-04-22T23:08:40.249Z,15.82
2023-04-22T23:11:49.313Z,15.90
2023-04-22T23:14:52.839Z,15.90
2023-04-22T23:17:57.320Z,18.25
2023-04-22T23:21:02.724Z,18.77
2023-04-22T23:24:08.517Z,18.67
2023-04-22T23:27:11.916Z,19.30
2023-04-22T23:30:16.514Z,18.80
2023-04-22T23:33:25.524Z,18.55
2023-04-22T23:36:33.868Z,19.02
2023-04-22T23:39:37.068Z,19.90
2023-04-22T23:42:40.561Z,19.48
2023-04-22T23:45:44.229Z,20.15
2023-04-22T23:48:47.690Z,20.42
2023-04-22T23:51:51.721Z,19.97
2023-04-22T23:54:57.143Z,21.12
2023-04-22T23:58:00.456Z,20.35
